EGTK METAR and TAF | Updated Today

EGTK METAR

Oxford (Kidlington) Airport

Observation time: 7:34 hr. ago

EGTK 072220Z 21014KT CAVOK 05/02 Q0982

Need help? Read our tutorial on how to read METARs or read the parsed version below.

Oxford (Kidlington) Airport (EGTK) METAR

  • Weather conditions on Tue, 07 Dec 2021 22:20:00 +0000 (7:34 hr. ago):
  • Present conditions: Dry
  • Clouds: Clear skies
  • Visibility: Greater than 10 km
  • Wind: 210 degrees at 14 knots
  • Temperature: 5 celsius
  • Dew point: 2 celsius
  • Pressure: 982 millibars
  • Remarks: None


Useful to know...

EGTK TAF

Oxford (Kidlington) Airport

TAF EGTK 072002Z 0721/0723 20013KT 9999 FEW020 PROB30 TEMPO 0721/0723 22015G25KT 6000 SHRA
Observation time: 9:52 hr. ago
Need help? Read our tutorial on how to read TAFs or read the parsed version below.

Parsed version of TAF for Oxford (Kidlington) Airport (EGTK)

  • From 07 December at 21:00 UTC, to day 07 of the month at 23:00 UTC
  • Clouds: A few at 610 meters
  • Visibility: Greater than 10 km
  • Wind: 200 degrees at 13
  • Expected to arise temporarily, from 07 December at 21:00 UTC, to day 07 of the month at 23:00 UTC
    Probability of 30%
  • Visibility: 6000 meters
  • Wind: 220 degrees at 15
  • Other: Showers of rain